sensor_id;sensor_type;location;lat;lon;timestamp;temperature;humidity
33988;DHT22;37428;53.580;-1.666;2022-09-09T00:01:35;15.70;99.90
33988;DHT22;37428;53.580;-1.666;2022-09-09T00:04:41;15.70;99.90
33988;DHT22;37428;53.580;-1.666;2022-09-09T00:07:47;15.70;99.90
33988;DHT22;37428;53.580;-1.666;2022-09-09T00:10:56;15.70;99.90
33988;DHT22;37428;53.580;-1.666;2022-09-09T00:14:03;15.70;99.90
33988;DHT22;37428;53.580;-1.666;2022-09-09T00:17:14;15.70;99.90
33988;DHT22;37428;53.580;-1.666;2022-09-09T00:20:27;15.70;99.90
33988;DHT22;37428;53.580;-1.666;2022-09-09T00:23:34;15.70;99.90
33988;DHT22;37428;53.580;-1.666;2022-09-09T00:26:43;15.70;99.90
33988;DHT22;37428;53.580;-1.666;2022-09-09T00:29:52;15.70;99.90
33988;DHT22;37428;53.580;-1.666;2022-09-09T00:32:59;15.70;99.90
33988;DHT22;37428;53.580;-1.666;2022-09-09T00:36:07;15.70;99.90
33988;DHT22;37428;53.580;-1.666;2022-09-09T00:39:27;15.70;99.90
33988;DHT22;37428;53.580;-1.666;2022-09-09T00:42:38;15.70;99.90
33988;DHT22;37428;53.580;-1.666;2022-09-09T00:45:57;15.70;99.90
33988;DHT22;37428;53.580;-1.666;2022-09-09T00:49:07;15.80;99.90
33988;DHT22;37428;53.580;-1.666;2022-09-09T00:52:22;15.80;99.90
33988;DHT22;37428;53.580;-1.666;2022-09-09T00:55:36;15.80;99.90
33988;DHT22;37428;53.580;-1.666;2022-09-09T00:58:43;15.80;99.90
33988;DHT22;37428;53.580;-1.666;2022-09-09T01:01:54;15.70;99.90
33988;DHT22;37428;53.580;-1.666;2022-09-09T01:05:05;15.70;99.90
33988;DHT22;37428;53.580;-1.666;2022-09-09T01:08:20;15.70;99.90
33988;DHT22;37428;53.580;-1.666;2022-09-09T01:11:35;15.60;99.90
33988;DHT22;37428;53.580;-1.666;2022-09-09T01:14:58;15.60;99.90
33988;DHT22;37428;53.580;-1.666;2022-09-09T01:18:07;15.60;99.90
33988;DHT22;37428;53.580;-1.666;2022-09-09T01:21:20;15.60;99.90
33988;DHT22;37428;53.580;-1.666;2022-09-09T01:24:34;15.70;99.90
33988;DHT22;37428;53.580;-1.666;2022-09-09T01:27:42;15.70;99.90
33988;DHT22;37428;53.580;-1.666;2022-09-09T01:30:45;15.60;99.90
33988;DHT22;37428;53.580;-1.666;2022-09-09T01:33:50;15.60;99.90
33988;DHT22;37428;53.580;-1.666;2022-09-09T01:36:57;15.70;99.90
33988;DHT22;37428;53.580;-1.666;2022-09-09T01:40:01;15.60;99.90
33988;DHT22;37428;53.580;-1.666;2022-09-09T01:43:05;15.60;99.90
33988;DHT22;37428;53.580;-1.666;2022-09-09T01:46:08;15.50;99.90
33988;DHT22;37428;53.580;-1.666;2022-09-09T01:49:11;15.40;99.90
33988;DHT22;37428;53.580;-1.666;2022-09-09T01:52:13;15.40;99.90
33988;DHT22;37428;53.580;-1.666;2022-09-09T01:55:16;15.30;99.90
33988;DHT22;37428;53.580;-1.666;2022-09-09T01:58:27;15.30;99.90
33988;DHT22;37428;53.580;-1.666;2022-09-09T02:01:39;15.30;99.90
33988;DHT22;37428;53.580;-1.666;2022-09-09T02:04:46;15.30;99.90
33988;DHT22;37428;53.580;-1.666;2022-09-09T02:07:51;15.30;99.90
33988;DHT22;37428;53.580;-1.666;2022-09-09T02:10:58;15.30;99.90
33988;DHT22;37428;53.580;-1.666;2022-09-09T02:14:08;15.30;99.90
33988;DHT22;37428;53.580;-1.666;2022-09-09T02:17:16;15.30;99.90
33988;DHT22;37428;53.580;-1.666;2022-09-09T02:20:24;15.40;99.90
33988;DHT22;37428;53.580;-1.666;2022-09-09T02:23:28;15.40;99.90
33988;DHT22;37428;53.580;-1.666;2022-09-09T02:26:32;15.40;99.90
33988;DHT22;37428;53.580;-1.666;2022-09-09T02:29:40;15.40;99.90
33988;DHT22;37428;53.580;-1.666;2022-09-09T02:32:43;15.40;99.90
33988;DHT22;37428;53.580;-1.666;2022-09-09T02:35:47;15.40;99.90
33988;DHT22;37428;53.580;-1.666;2022-09-09T02:38:50;15.40;99.90
33988;DHT22;37428;53.580;-1.666;2022-09-09T02:41:54;15.40;99.90
33988;DHT22;37428;53.580;-1.666;2022-09-09T02:44:58;15.40;99.90
33988;DHT22;37428;53.580;-1.666;2022-09-09T02:48:05;15.40;99.90
33988;DHT22;37428;53.580;-1.666;2022-09-09T02:51:17;15.40;99.90
33988;DHT22;37428;53.580;-1.666;2022-09-09T02:54:27;15.30;99.90
33988;DHT22;37428;53.580;-1.666;2022-09-09T02:57:32;15.30;99.90
33988;DHT22;37428;53.580;-1.666;2022-09-09T03:00:41;15.20;99.90
33988;DHT22;37428;53.580;-1.666;2022-09-09T03:03:48;15.20;99.90
33988;DHT22;37428;53.580;-1.666;2022-09-09T03:06:50;15.20;99.90
33988;DHT22;37428;53.580;-1.666;2022-09-09T03:09:54;15.20;99.90
33988;DHT22;37428;53.580;-1.666;2022-09-09T03:12:57;15.20;99.90
33988;DHT22;37428;53.580;-1.666;2022-09-09T03:16:02;15.20;99.90
33988;DHT22;37428;53.580;-1.666;2022-09-09T03:19:04;15.20;99.90
33988;DHT22;37428;53.580;-1.666;2022-09-09T03:22:08;15.10;99.90
33988;DHT22;37428;53.580;-1.666;2022-09-09T03:25:11;15.10;99.90
33988;DHT22;37428;53.580;-1.666;2022-09-09T03:28:13;15.10;99.90
33988;DHT22;37428;53.580;-1.666;2022-09-09T03:31:17;15.10;99.90
33988;DHT22;37428;53.580;-1.666;2022-09-09T03:34:20;15.10;99.90
33988;DHT22;37428;53.580;-1.666;2022-09-09T03:37:22;15.10;99.90
33988;DHT22;37428;53.580;-1.666;2022-09-09T03:40:25;15.10;99.90
33988;DHT22;37428;53.580;-1.666;2022-09-09T03:43:27;15.00;99.90
33988;DHT22;37428;53.580;-1.666;2022-09-09T03:46:31;15.10;99.90
33988;DHT22;37428;53.580;-1.666;2022-09-09T03:49:34;15.10;99.90
33988;DHT22;37428;53.580;-1.666;2022-09-09T03:52:37;15.10;99.90
33988;DHT22;37428;53.580;-1.666;2022-09-09T03:55:39;15.10;99.90
33988;DHT22;37428;53.580;-1.666;2022-09-09T03:58:45;15.10;99.90
33988;DHT22;37428;53.580;-1.666;2022-09-09T04:01:48;15.10;99.90
33988;DHT22;37428;53.580;-1.666;2022-09-09T04:04:51;15.10;99.90
33988;DHT22;37428;53.580;-1.666;2022-09-09T04:07:53;15.00;99.90
33988;DHT22;37428;53.580;-1.666;2022-09-09T04:10:56;15.00;99.90
33988;DHT22;37428;53.580;-1.666;2022-09-09T04:14:00;15.00;99.90
33988;DHT22;37428;53.580;-1.666;2022-09-09T04:17:04;15.00;99.90
33988;DHT22;37428;53.580;-1.666;2022-09-09T04:20:07;14.90;99.90
33988;DHT22;37428;53.580;-1.666;2022-09-09T04:23:11;15.00;99.90
33988;DHT22;37428;53.580;-1.666;2022-09-09T04:26:14;14.90;99.90
33988;DHT22;37428;53.580;-1.666;2022-09-09T04:29:16;14.90;99.90
33988;DHT22;37428;53.580;-1.666;2022-09-09T04:32:19;14.90;99.90
33988;DHT22;37428;53.580;-1.666;2022-09-09T04:35:24;14.90;99.90
33988;DHT22;37428;53.580;-1.666;2022-09-09T04:38:27;14.90;99.90
33988;DHT22;37428;53.580;-1.666;2022-09-09T04:41:30;14.90;99.90
33988;DHT22;37428;53.580;-1.666;2022-09-09T04:44:32;15.00;99.90
33988;DHT22;37428;53.580;-1.666;2022-09-09T04:47:36;14.90;99.90
33988;DHT22;37428;53.580;-1.666;2022-09-09T04:50:38;14.90;99.90
33988;DHT22;37428;53.580;-1.666;2022-09-09T04:53:41;14.90;99.90
33988;DHT22;37428;53.580;-1.666;2022-09-09T04:56:43;14.90;99.90
33988;DHT22;37428;53.580;-1.666;2022-09-09T04:59:45;14.90;99.90
33988;DHT22;37428;53.580;-1.666;2022-09-09T05:02:51;14.90;99.90
33988;DHT22;37428;53.580;-1.666;2022-09-09T05:05:54;15.00;99.90
33988;DHT22;37428;53.580;-1.666;2022-09-09T05:08:57;14.90;99.90
33988;DHT22;37428;53.580;-1.666;2022-09-09T05:12:01;14.90;99.90
33988;DHT22;37428;53.580;-1.666;2022-09-09T05:15:05;14.90;99.90
33988;DHT22;37428;53.580;-1.666;2022-09-09T05:18:09;14.90;99.90
33988;DHT22;37428;53.580;-1.666;2022-09-09T05:21:12;14.90;99.90
33988;DHT22;37428;53.580;-1.666;2022-09-09T05:24:14;15.00;99.90
33988;DHT22;37428;53.580;-1.666;2022-09-09T05:27:17;15.00;99.90
33988;DHT22;37428;53.580;-1.666;2022-09-09T05:30:19;15.00;99.90
33988;DHT22;37428;53.580;-1.666;2022-09-09T05:33:24;15.00;99.90
33988;DHT22;37428;53.580;-1.666;2022-09-09T05:36:26;15.10;99.90
33988;DHT22;37428;53.580;-1.666;2022-09-09T05:39:28;15.10;99.90
33988;DHT22;37428;53.580;-1.666;2022-09-09T05:42:31;15.10;99.90
33988;DHT22;37428;53.580;-1.666;2022-09-09T05:45:33;15.10;99.90
33988;DHT22;37428;53.580;-1.666;2022-09-09T05:48:38;15.20;99.90
33988;DHT22;37428;53.580;-1.666;2022-09-09T05:51:40;15.20;99.90
33988;DHT22;37428;53.580;-1.666;2022-09-09T05:54:43;15.20;99.90
33988;DHT22;37428;53.580;-1.666;2022-09-09T05:57:50;15.10;99.90
33988;DHT22;37428;53.580;-1.666;2022-09-09T06:00:52;15.10;99.90
33988;DHT22;37428;53.580;-1.666;2022-09-09T06:03:59;15.10;99.90
33988;DHT22;37428;53.580;-1.666;2022-09-09T06:07:02;15.10;99.90
33988;DHT22;37428;53.580;-1.666;2022-09-09T06:10:05;15.10;99.90
33988;DHT22;37428;53.580;-1.666;2022-09-09T06:13:07;15.20;99.90
33988;DHT22;37428;53.580;-1.666;2022-09-09T06:16:11;15.20;99.90
33988;DHT22;37428;53.580;-1.666;2022-09-09T06:19:15;15.30;99.90
33988;DHT22;37428;53.580;-1.666;2022-09-09T06:22:17;15.20;99.90
33988;DHT22;37428;53.580;-1.666;2022-09-09T06:25:20;15.20;99.90
33988;DHT22;37428;53.580;-1.666;2022-09-09T06:28:25;15.30;99.90
33988;DHT22;37428;53.580;-1.666;2022-09-09T06:31:29;15.30;99.90
33988;DHT22;37428;53.580;-1.666;2022-09-09T06:34:33;15.30;99.90
33988;DHT22;37428;53.580;-1.666;2022-09-09T06:37:36;15.40;99.90
33988;DHT22;37428;53.580;-1.666;2022-09-09T06:40:38;15.40;99.90
33988;DHT22;37428;53.580;-1.666;2022-09-09T06:43:40;15.40;99.90
33988;DHT22;37428;53.580;-1.666;2022-09-09T06:46:43;15.40;99.90
33988;DHT22;37428;53.580;-1.666;2022-09-09T06:49:46;15.40;99.90
33988;DHT22;37428;53.580;-1.666;2022-09-09T06:52:48;15.50;99.90
33988;DHT22;37428;53.580;-1.666;2022-09-09T06:55:51;15.50;99.90
33988;DHT22;37428;53.580;-1.666;2022-09-09T06:58:56;15.50;99.90
33988;DHT22;37428;53.580;-1.666;2022-09-09T07:01:59;15.50;99.90
33988;DHT22;37428;53.580;-1.666;2022-09-09T07:05:04;15.60;99.90
33988;DHT22;37428;53.580;-1.666;2022-09-09T07:08:06;15.60;99.90
33988;DHT22;37428;53.580;-1.666;2022-09-09T07:11:14;15.70;99.90
33988;DHT22;37428;53.580;-1.666;2022-09-09T07:14:17;15.70;99.90
33988;DHT22;37428;53.580;-1.666;2022-09-09T07:17:20;15.80;99.90
33988;DHT22;37428;53.580;-1.666;2022-09-09T07:20:25;15.70;99.90
33988;DHT22;37428;53.580;-1.666;2022-09-09T07:23:27;15.80;99.90
33988;DHT22;37428;53.580;-1.666;2022-09-09T07:26:30;15.90;99.90
33988;DHT22;37428;53.580;-1.666;2022-09-09T07:29:36;15.90;99.90
33988;DHT22;37428;53.580;-1.666;2022-09-09T07:32:40;15.90;99.90
33988;DHT22;37428;53.580;-1.666;2022-09-09T07:35:43;15.90;99.90
33988;DHT22;37428;53.580;-1.666;2022-09-09T07:38:47;16.00;99.90
33988;DHT22;37428;53.580;-1.666;2022-09-09T07:41:52;15.90;99.90
33988;DHT22;37428;53.580;-1.666;2022-09-09T07:45:04;16.00;99.90
33988;DHT22;37428;53.580;-1.666;2022-09-09T07:48:06;15.90;99.90
33988;DHT22;37428;53.580;-1.666;2022-09-09T07:51:15;15.90;99.90
33988;DHT22;37428;53.580;-1.666;2022-09-09T07:54:19;15.90;99.90
33988;DHT22;37428;53.580;-1.666;2022-09-09T07:57:24;15.90;99.60
33988;DHT22;37428;53.580;-1.666;2022-09-09T08:00:26;15.80;99.70
33988;DHT22;37428;53.580;-1.666;2022-09-09T08:03:29;15.70;99.70
33988;DHT22;37428;53.580;-1.666;2022-09-09T08:06:35;15.70;99.80
33988;DHT22;37428;53.580;-1.666;2022-09-09T08:09:38;15.70;99.20
33988;DHT22;37428;53.580;-1.666;2022-09-09T08:12:40;15.70;99.60
33988;DHT22;37428;53.580;-1.666;2022-09-09T08:15:42;15.70;99.20
33988;DHT22;37428;53.580;-1.666;2022-09-09T08:18:45;15.60;99.00
33988;DHT22;37428;53.580;-1.666;2022-09-09T08:21:49;15.60;99.10
33988;DHT22;37428;53.580;-1.666;2022-09-09T08:24:52;15.70;99.10
33988;DHT22;37428;53.580;-1.666;2022-09-09T08:27:56;15.70;99.60
33988;DHT22;37428;53.580;-1.666;2022-09-09T08:31:05;15.80;98.80
33988;DHT22;37428;53.580;-1.666;2022-09-09T08:34:09;15.90;98.20
33988;DHT22;37428;53.580;-1.666;2022-09-09T08:37:12;16.00;97.70
33988;DHT22;37428;53.580;-1.666;2022-09-09T08:40:22;16.10;96.90
33988;DHT22;37428;53.580;-1.666;2022-09-09T08:43:29;16.20;96.60
33988;DHT22;37428;53.580;-1.666;2022-09-09T08:46:38;16.30;96.50
33988;DHT22;37428;53.580;-1.666;2022-09-09T08:50:17;16.30;96.50
33988;DHT22;37428;53.580;-1.666;2022-09-09T08:53:28;16.40;95.90
33988;DHT22;37428;53.580;-1.666;2022-09-09T08:56:39;16.50;95.20
33988;DHT22;37428;53.580;-1.666;2022-09-09T08:59:42;16.60;94.20
33988;DHT22;37428;53.580;-1.666;2022-09-09T09:02:53;16.70;93.80
33988;DHT22;37428;53.580;-1.666;2022-09-09T09:06:04;16.90;93.60
33988;DHT22;37428;53.580;-1.666;2022-09-09T09:09:16;16.90;92.90
33988;DHT22;37428;53.580;-1.666;2022-09-09T09:12:29;17.10;92.60
33988;DHT22;37428;53.580;-1.666;2022-09-09T09:15:37;17.10;89.60
33988;DHT22;37428;53.580;-1.666;2022-09-09T09:18:41;17.20;88.70
33988;DHT22;37428;53.580;-1.666;2022-09-09T09:21:45;17.70;90.00
33988;DHT22;37428;53.580;-1.666;2022-09-09T09:24:55;18.10;87.70
33988;DHT22;37428;53.580;-1.666;2022-09-09T09:28:00;18.20;87.00
33988;DHT22;37428;53.580;-1.666;2022-09-09T09:31:08;18.50;85.90
33988;DHT22;37428;53.580;-1.666;2022-09-09T09:34:11;18.50;83.80
33988;DHT22;37428;53.580;-1.666;2022-09-09T09:37:17;18.60;83.60
33988;DHT22;37428;53.580;-1.666;2022-09-09T09:40:25;19.30;82.60
33988;DHT22;37428;53.580;-1.666;2022-09-09T09:43:29;20.10;80.90
33988;DHT22;37428;53.580;-1.666;2022-09-09T09:46:31;20.70;77.30
33988;DHT22;37428;53.580;-1.666;2022-09-09T09:49:34;21.10;74.70
33988;DHT22;37428;53.580;-1.666;2022-09-09T09:52:36;21.30;72.00
33988;DHT22;37428;53.580;-1.666;2022-09-09T09:55:54;21.50;71.50
33988;DHT22;37428;53.580;-1.666;2022-09-09T09:58:56;21.90;71.50
33988;DHT22;37428;53.580;-1.666;2022-09-09T10:02:13;22.20;68.70
33988;DHT22;37428;53.580;-1.666;2022-09-09T10:05:17;22.20;70.10
33988;DHT22;37428;53.580;-1.666;2022-09-09T10:08:20;22.30;70.10
33988;DHT22;37428;53.580;-1.666;2022-09-09T10:11:34;22.60;69.40
33988;DHT22;37428;53.580;-1.666;2022-09-09T10:14:47;22.00;68.60
33988;DHT22;37428;53.580;-1.666;2022-09-09T10:17:57;21.30;69.80
33988;DHT22;37428;53.580;-1.666;2022-09-09T10:21:08;20.70;72.10
33988;DHT22;37428;53.580;-1.666;2022-09-09T10:24:38;20.30;73.20
33988;DHT22;37428;53.580;-1.666;2022-09-09T10:27:54;20.60;74.70
33988;DHT22;37428;53.580;-1.666;2022-09-09T10:31:10;21.30;72.70
33988;DHT22;37428;53.580;-1.666;2022-09-09T10:34:23;21.30;71.60
33988;DHT22;37428;53.580;-1.666;2022-09-09T10:37:42;21.00;74.40
33988;DHT22;37428;53.580;-1.666;2022-09-09T10:41:15;20.60;74.00
33988;DHT22;37428;53.580;-1.666;2022-09-09T10:44:27;20.30;75.30
33988;DHT22;37428;53.580;-1.666;2022-09-09T10:47:44;20.10;74.40
33988;DHT22;37428;53.580;-1.666;2022-09-09T10:50:56;19.90;75.90
33988;DHT22;37428;53.580;-1.666;2022-09-09T10:54:27;19.80;76.20
33988;DHT22;37428;53.580;-1.666;2022-09-09T10:57:36;19.80;76.40
33988;DHT22;37428;53.580;-1.666;2022-09-09T11:00:45;19.90;76.50
33988;DHT22;37428;53.580;-1.666;2022-09-09T11:03:54;20.70;75.20
33988;DHT22;37428;53.580;-1.666;2022-09-09T11:06:57;21.70;73.50
33988;DHT22;37428;53.580;-1.666;2022-09-09T11:10:07;22.60;67.80
33988;DHT22;37428;53.580;-1.666;2022-09-09T11:13:18;23.30;62.10
33988;DHT22;37428;53.580;-1.666;2022-09-09T11:16:28;23.20;62.00
33988;DHT22;37428;53.580;-1.666;2022-09-09T11:19:34;22.70;64.80
33988;DHT22;37428;53.580;-1.666;2022-09-09T11:22:44;22.10;69.30
33988;DHT22;37428;53.580;-1.666;2022-09-09T11:25:52;21.50;72.90
33988;DHT22;37428;53.580;-1.666;2022-09-09T11:29:11;20.90;74.90
33988;DHT22;37428;53.580;-1.666;2022-09-09T11:32:31;20.50;76.10
33988;DHT22;37428;53.580;-1.666;2022-09-09T11:35:47;20.20;77.60
33988;DHT22;37428;53.580;-1.666;2022-09-09T11:38:53;20.00;78.70
33988;DHT22;37428;53.580;-1.666;2022-09-09T11:42:12;20.10;79.40
33988;DHT22;37428;53.580;-1.666;2022-09-09T11:45:23;21.00;77.00
33988;DHT22;37428;53.580;-1.666;2022-09-09T11:48:31;22.00;75.90
33988;DHT22;37428;53.580;-1.666;2022-09-09T11:51:34;22.40;69.80
33988;DHT22;37428;53.580;-1.666;2022-09-09T11:54:44;22.00;68.60
33988;DHT22;37428;53.580;-1.666;2022-09-09T11:57:47;21.60;71.00
33988;DHT22;37428;53.580;-1.666;2022-09-09T12:00:50;21.10;70.40
33988;DHT22;37428;53.580;-1.666;2022-09-09T12:07:28;20.70;73.40
33988;DHT22;37428;53.580;-1.666;2022-09-09T12:10:33;20.40;74.30
33988;DHT22;37428;53.580;-1.666;2022-09-09T12:13:36;20.30;75.90
33988;DHT22;37428;53.580;-1.666;2022-09-09T12:16:39;20.10;76.20
33988;DHT22;37428;53.580;-1.666;2022-09-09T12:19:42;19.90;76.40
33988;DHT22;37428;53.580;-1.666;2022-09-09T12:26:31;19.80;78.90
33988;DHT22;37428;53.580;-1.666;2022-09-09T12:29:41;19.70;79.70
33988;DHT22;37428;53.580;-1.666;2022-09-09T12:32:45;19.40;80.30
33988;DHT22;37428;53.580;-1.666;2022-09-09T12:35:53;19.20;82.10
33988;DHT22;37428;53.580;-1.666;2022-09-09T12:38:59;18.90;83.00
33988;DHT22;37428;53.580;-1.666;2022-09-09T12:42:16;18.70;84.90
33988;DHT22;37428;53.580;-1.666;2022-09-09T12:45:20;18.50;85.70
33988;DHT22;37428;53.580;-1.666;2022-09-09T12:48:26;18.60;87.30
33988;DHT22;37428;53.580;-1.666;2022-09-09T12:51:33;18.60;88.20
33988;DHT22;37428;53.580;-1.666;2022-09-09T12:54:37;18.70;88.70
33988;DHT22;37428;53.580;-1.666;2022-09-09T12:57:39;18.90;88.80
33988;DHT22;37428;53.580;-1.666;2022-09-09T13:00:49;19.20;86.40
33988;DHT22;37428;53.580;-1.666;2022-09-09T13:03:53;20.00;85.40
33988;DHT22;37428;53.580;-1.666;2022-09-09T13:07:07;20.80;84.80
33988;DHT22;37428;53.580;-1.666;2022-09-09T13:10:11;21.40;82.70
33988;DHT22;37428;53.580;-1.666;2022-09-09T13:13:16;21.80;79.20
33988;DHT22;37428;53.580;-1.666;2022-09-09T13:16:21;22.30;76.30
33988;DHT22;37428;53.580;-1.666;2022-09-09T13:19:23;22.70;75.40
33988;DHT22;37428;53.580;-1.666;2022-09-09T13:22:34;23.10;73.90
33988;DHT22;37428;53.580;-1.666;2022-09-09T13:25:38;22.70;73.00
33988;DHT22;37428;53.580;-1.666;2022-09-09T13:28:40;22.40;73.20
33988;DHT22;37428;53.580;-1.666;2022-09-09T13:31:42;21.80;73.80
33988;DHT22;37428;53.580;-1.666;2022-09-09T13:34:51;21.00;74.90
33988;DHT22;37428;53.580;-1.666;2022-09-09T13:37:54;20.10;76.20
33988;DHT22;37428;53.580;-1.666;2022-09-09T13:40:58;19.50;78.60
33988;DHT22;37428;53.580;-1.666;2022-09-09T13:44:03;19.10;80.50
33988;DHT22;37428;53.580;-1.666;2022-09-09T13:47:18;18.70;81.20
33988;DHT22;37428;53.580;-1.666;2022-09-09T13:50:22;18.40;82.90
33988;DHT22;37428;53.580;-1.666;2022-09-09T13:53:26;18.20;83.30
33988;DHT22;37428;53.580;-1.666;2022-09-09T13:56:28;18.10;85.00
33988;DHT22;37428;53.580;-1.666;2022-09-09T13:59:31;18.00;84.40
33988;DHT22;37428;53.580;-1.666;2022-09-09T14:02:35;18.10;85.30
33988;DHT22;37428;53.580;-1.666;2022-09-09T14:05:39;18.00;85.00
33988;DHT22;37428;53.580;-1.666;2022-09-09T14:08:44;18.00;85.70
33988;DHT22;37428;53.580;-1.666;2022-09-09T14:11:46;17.90;85.20
33988;DHT22;37428;53.580;-1.666;2022-09-09T14:14:48;17.90;85.40
33988;DHT22;37428;53.580;-1.666;2022-09-09T14:17:51;17.90;86.20
33988;DHT22;37428;53.580;-1.666;2022-09-09T14:20:53;18.00;85.60
33988;DHT22;37428;53.580;-1.666;2022-09-09T14:23:57;18.30;86.00
33988;DHT22;37428;53.580;-1.666;2022-09-09T14:26:59;18.90;84.60
33988;DHT22;37428;53.580;-1.666;2022-09-09T14:30:02;19.60;83.90
33988;DHT22;37428;53.580;-1.666;2022-09-09T14:33:05;20.10;81.50
33988;DHT22;37428;53.580;-1.666;2022-09-09T14:36:08;20.60;78.50
33988;DHT22;37428;53.580;-1.666;2022-09-09T14:39:12;20.60;77.10
33988;DHT22;37428;53.580;-1.666;2022-09-09T14:42:14;20.60;78.00
33988;DHT22;37428;53.580;-1.666;2022-09-09T14:45:16;20.50;78.80
33988;DHT22;37428;53.580;-1.666;2022-09-09T14:48:18;20.40;79.40
33988;DHT22;37428;53.580;-1.666;2022-09-09T14:51:22;20.40;78.20
33988;DHT22;37428;53.580;-1.666;2022-09-09T14:54:26;20.40;78.90
33988;DHT22;37428;53.580;-1.666;2022-09-09T14:57:28;20.40;79.80
33988;DHT22;37428;53.580;-1.666;2022-09-09T15:00:30;20.40;79.40
33988;DHT22;37428;53.580;-1.666;2022-09-09T15:03:33;20.40;79.00
33988;DHT22;37428;53.580;-1.666;2022-09-09T15:06:35;20.30;78.90
33988;DHT22;37428;53.580;-1.666;2022-09-09T15:09:40;20.30;78.90
33988;DHT22;37428;53.580;-1.666;2022-09-09T15:12:42;20.10;76.80
33988;DHT22;37428;53.580;-1.666;2022-09-09T15:15:45;20.00;79.40
33988;DHT22;37428;53.580;-1.666;2022-09-09T15:18:50;19.80;81.10
33988;DHT22;37428;53.580;-1.666;2022-09-09T15:21:55;19.60;80.20
33988;DHT22;37428;53.580;-1.666;2022-09-09T15:24:58;19.40;82.60
33988;DHT22;37428;53.580;-1.666;2022-09-09T15:28:00;19.10;85.30
33988;DHT22;37428;53.580;-1.666;2022-09-09T15:31:06;18.90;85.30
33988;DHT22;37428;53.580;-1.666;2022-09-09T15:34:08;18.60;86.30
33988;DHT22;37428;53.580;-1.666;2022-09-09T15:37:13;18.30;85.70
33988;DHT22;37428;53.580;-1.666;2022-09-09T15:40:16;18.20;86.50
33988;DHT22;37428;53.580;-1.666;2022-09-09T15:43:18;18.00;85.70
33988;DHT22;37428;53.580;-1.666;2022-09-09T15:46:28;17.90;86.30
33988;DHT22;37428;53.580;-1.666;2022-09-09T15:49:30;17.80;86.90
33988;DHT22;37428;53.580;-1.666;2022-09-09T15:52:32;17.60;87.80
33988;DHT22;37428;53.580;-1.666;2022-09-09T15:55:36;17.60;89.50
33988;DHT22;37428;53.580;-1.666;2022-09-09T15:58:38;17.70;89.90
33988;DHT22;37428;53.580;-1.666;2022-09-09T16:01:42;17.80;90.40
33988;DHT22;37428;53.580;-1.666;2022-09-09T16:04:44;17.80;91.00
33988;DHT22;37428;53.580;-1.666;2022-09-09T16:07:46;18.00;90.40
33988;DHT22;37428;53.580;-1.666;2022-09-09T16:10:50;18.30;91.20
33988;DHT22;37428;53.580;-1.666;2022-09-09T16:13:53;18.40;90.10
33988;DHT22;37428;53.580;-1.666;2022-09-09T16:16:57;18.40;88.60
33988;DHT22;37428;53.580;-1.666;2022-09-09T16:19:59;18.50;90.00
33988;DHT22;37428;53.580;-1.666;2022-09-09T16:23:01;18.50;91.20
33988;DHT22;37428;53.580;-1.666;2022-09-09T16:26:05;18.50;89.70
33988;DHT22;37428;53.580;-1.666;2022-09-09T16:29:07;18.50;89.80
33988;DHT22;37428;53.580;-1.666;2022-09-09T16:32:10;18.50;89.10
33988;DHT22;37428;53.580;-1.666;2022-09-09T16:35:12;18.40;89.30
33988;DHT22;37428;53.580;-1.666;2022-09-09T16:38:15;18.40;89.10
33988;DHT22;37428;53.580;-1.666;2022-09-09T16:41:19;18.40;89.40
33988;DHT22;37428;53.580;-1.666;2022-09-09T16:44:21;18.50;89.20
33988;DHT22;37428;53.580;-1.666;2022-09-09T16:47:23;18.40;89.30
33988;DHT22;37428;53.580;-1.666;2022-09-09T16:50:26;18.50;88.70
33988;DHT22;37428;53.580;-1.666;2022-09-09T16:53:28;18.40;88.80
33988;DHT22;37428;53.580;-1.666;2022-09-09T16:56:32;18.30;88.10
33988;DHT22;37428;53.580;-1.666;2022-09-09T16:59:34;18.30;89.30
33988;DHT22;37428;53.580;-1.666;2022-09-09T17:02:38;18.40;89.20
33988;DHT22;37428;53.580;-1.666;2022-09-09T17:05:41;18.40;89.40
33988;DHT22;37428;53.580;-1.666;2022-09-09T17:08:45;18.40;89.00
33988;DHT22;37428;53.580;-1.666;2022-09-09T17:11:51;18.40;89.80
33988;DHT22;37428;53.580;-1.666;2022-09-09T17:14:53;18.40;89.90
33988;DHT22;37428;53.580;-1.666;2022-09-09T17:17:57;18.30;89.20
33988;DHT22;37428;53.580;-1.666;2022-09-09T17:21:04;18.20;90.10
33988;DHT22;37428;53.580;-1.666;2022-09-09T17:24:08;18.10;90.30
33988;DHT22;37428;53.580;-1.666;2022-09-09T17:27:12;17.90;89.60
33988;DHT22;37428;53.580;-1.666;2022-09-09T17:30:14;17.80;90.70
33988;DHT22;37428;53.580;-1.666;2022-09-09T17:33:16;17.60;91.80
33988;DHT22;37428;53.580;-1.666;2022-09-09T17:36:22;17.60;92.00
33988;DHT22;37428;53.580;-1.666;2022-09-09T17:39:26;17.50;92.30
33988;DHT22;37428;53.580;-1.666;2022-09-09T17:42:33;17.50;92.80
33988;DHT22;37428;53.580;-1.666;2022-09-09T17:45:35;17.40;93.30
33988;DHT22;37428;53.580;-1.666;2022-09-09T17:48:38;17.50;93.00
33988;DHT22;37428;53.580;-1.666;2022-09-09T17:51:41;17.40;93.10
33988;DHT22;37428;53.580;-1.666;2022-09-09T17:54:43;17.40;92.90
33988;DHT22;37428;53.580;-1.666;2022-09-09T17:57:47;17.30;93.40
33988;DHT22;37428;53.580;-1.666;2022-09-09T18:00:49;17.20;93.30
33988;DHT22;37428;53.580;-1.666;2022-09-09T18:03:54;17.10;93.50
33988;DHT22;37428;53.580;-1.666;2022-09-09T18:06:57;17.00;92.40
33988;DHT22;37428;53.580;-1.666;2022-09-09T18:09:59;16.90;92.80
33988;DHT22;37428;53.580;-1.666;2022-09-09T18:13:03;16.80;92.80
33988;DHT22;37428;53.580;-1.666;2022-09-09T18:16:10;16.80;92.40
33988;DHT22;37428;53.580;-1.666;2022-09-09T18:19:14;16.70;93.10
33988;DHT22;37428;53.580;-1.666;2022-09-09T18:22:17;16.60;92.80
33988;DHT22;37428;53.580;-1.666;2022-09-09T18:25:19;16.50;93.60
33988;DHT22;37428;53.580;-1.666;2022-09-09T18:28:23;16.50;93.30
33988;DHT22;37428;53.580;-1.666;2022-09-09T18:31:26;16.50;94.30
33988;DHT22;37428;53.580;-1.666;2022-09-09T18:34:29;16.50;94.00
33988;DHT22;37428;53.580;-1.666;2022-09-09T18:37:33;16.60;93.90
33988;DHT22;37428;53.580;-1.666;2022-09-09T18:40:37;16.50;93.20
33988;DHT22;37428;53.580;-1.666;2022-09-09T18:43:41;16.40;93.00
33988;DHT22;37428;53.580;-1.666;2022-09-09T18:46:44;16.40;93.20
33988;DHT22;37428;53.580;-1.666;2022-09-09T18:49:47;16.40;93.20
33988;DHT22;37428;53.580;-1.666;2022-09-09T18:52:50;16.40;93.70
33988;DHT22;37428;53.580;-1.666;2022-09-09T18:55:57;16.50;92.90
33988;DHT22;37428;53.580;-1.666;2022-09-09T18:59:03;16.50;92.80
33988;DHT22;37428;53.580;-1.666;2022-09-09T19:02:06;16.50;92.60
33988;DHT22;37428;53.580;-1.666;2022-09-09T19:05:08;16.50;92.90
33988;DHT22;37428;53.580;-1.666;2022-09-09T19:08:10;16.50;91.80
33988;DHT22;37428;53.580;-1.666;2022-09-09T19:11:14;16.50;91.10
33988;DHT22;37428;53.580;-1.666;2022-09-09T19:14:19;16.50;92.00
33988;DHT22;37428;53.580;-1.666;2022-09-09T19:17:21;16.50;91.70
33988;DHT22;37428;53.580;-1.666;2022-09-09T19:20:25;16.50;92.00